Time;durP1;ratioP1;P1;durP2;ratioP2;P2;SDS_P1;SDS_P2;PMS_P1;PMS_P2;Temp;Humidity;BMP_temperature;BMP_pressure;BME280_temperature;BME280_humidity;BME280_pressure;Samples;Min_cycle;Max_cycle;Signal;HPM_P1;HPM_P2
2023/05/15 00:00:36;;;;;;;1.30;1.20;;;13.30;99.90;;;12.15;82.44;100938.53;5009443;28;20123;-73
2023/05/15 00:03:02;;;;;;;4.80;1.48;;;13.30;99.90;;;12.19;81.58;100936.59;5008982;28;20041;-73
2023/05/15 00:05:28;;;;;;;2.28;1.40;;;13.30;99.90;;;12.20;79.29;100938.31;5012092;28;20049;-73
2023/05/15 00:07:54;;;;;;;2.72;1.50;;;13.30;99.90;;;12.19;78.45;100924.25;5010924;28;20083;-73
2023/05/15 00:10:20;;;;;;;;;;;13.30;99.90;;;12.13;79.94;100921.06;5015484;28;20493;-74
2023/05/15 00:12:46;;;;;;;2.97;1.17;;;13.20;99.90;;;11.97;81.80;100919.19;5001797;28;20476;-74
2023/05/15 00:15:11;;;;;;;;;;;13.20;99.90;;;11.89;82.96;100919.56;5013926;28;20042;-73
2023/05/15 00:17:37;;;;;;;1.38;0.90;;;13.00;99.90;;;11.85;82.46;100912.69;5000834;28;19912;-73
2023/05/15 00:20:04;;;;;;;1.48;1.10;;;13.00;99.90;;;11.76;83.65;100907.03;5006614;28;20041;-73
2023/05/15 00:22:30;;;;;;;2.28;1.15;;;12.90;99.90;;;11.72;83.54;100916.00;5002186;28;20041;-73
2023/05/15 00:24:58;;;;;;;1.48;1.05;;;12.90;99.90;;;11.67;82.61;100914.44;5021393;28;20443;-73
2023/05/15 00:27:25;;;;;;;6.97;1.55;;;12.80;99.90;;;11.56;83.89;100908.84;5012318;28;20037;-73
2023/05/15 00:29:51;;;;;;;2.38;1.42;;;12.80;99.90;;;11.52;84.62;100901.16;4995146;28;20037;-75
2023/05/15 00:32:17;;;;;;;1.15;1.05;;;12.70;99.90;;;11.50;83.70;100907.34;5013204;28;20056;-73
2023/05/15 00:34:42;;;;;;;;;;;12.70;99.90;;;11.47;82.81;100893.47;5012153;28;20045;-73
2023/05/15 00:37:08;;;;;;;2.95;1.17;;;12.60;99.90;;;11.33;83.39;100888.81;4997869;28;19913;-74
2023/05/15 00:39:35;;;;;;;2.17;1.27;;;12.50;99.90;;;11.26;83.18;100888.25;5013090;28;20038;-73
2023/05/15 00:42:03;;;;;;;1.23;0.90;;;12.40;99.90;;;11.19;82.10;100886.84;5008854;28;20029;-72
2023/05/15 00:44:31;;;;;;;1.50;0.93;;;12.30;99.90;;;11.13;82.24;100884.50;5013766;28;20046;-73
2023/05/15 00:47:00;;;;;;;1.80;1.10;;;12.30;99.90;;;11.05;82.77;100882.19;5002982;28;20044;-73
2023/05/15 00:49:28;;;;;;;2.28;1.33;;;12.20;99.90;;;11.02;82.47;100882.34;5004697;28;20041;-73
2023/05/15 00:51:58;;;;;;;1.63;1.27;;;12.20;99.90;;;10.96;83.67;100887.06;4987661;28;20032;-73
2023/05/15 00:54:24;;;;;;;1.77;1.05;;;12.10;99.90;;;10.91;85.57;100878.47;5007419;28;20124;-73
2023/05/15 00:56:51;;;;;;;1.17;0.75;;;12.10;99.90;;;10.91;84.15;100870.56;5002913;28;20371;-73
2023/05/15 00:59:18;;;;;;;1.75;1.38;;;12.10;99.90;;;10.83;86.41;100866.53;5011069;28;20630;-73
2023/05/15 01:01:44;;;;;;;1.90;1.33;;;12.10;99.90;;;10.82;87.42;100862.19;5001275;28;21056;-74
2023/05/15 01:04:11;;;;;;;2.83;1.33;;;12.00;99.90;;;10.81;87.73;100857.00;5003224;28;20042;-73
2023/05/15 01:06:37;;;;;;;1.92;1.15;;;12.00;99.90;;;10.81;88.61;100863.09;5012863;28;20112;-74
2023/05/15 01:09:05;;;;;;;1.52;1.25;;;12.00;99.90;;;10.82;90.21;100863.94;5001135;28;20485;-74
2023/05/15 01:11:35;;;;;;;1.48;1.15;;;12.00;99.90;;;10.83;89.17;100863.03;5008531;28;20514;-73
2023/05/15 01:14:06;;;;;;;2.28;1.10;;;12.00;99.90;;;10.83;87.74;100852.50;5009726;28;20069;-73
2023/05/15 01:16:33;;;;;;;2.65;1.23;;;12.00;99.90;;;10.81;86.73;100852.56;5008204;28;20041;-74
2023/05/15 01:18:59;;;;;;;2.13;1.35;;;12.00;99.90;;;10.77;86.02;100848.34;5012776;28;20030;-74
2023/05/15 01:21:33;;;;;;;1.00;0.80;;;11.90;99.90;;;10.75;85.59;100849.34;4976833;28;20110;-73
2023/05/15 01:24:14;;;;;;;5.40;1.77;;;11.90;99.90;;;10.64;85.71;100844.56;5013466;28;20071;-73
2023/05/15 01:27:01;;;;;;;2.90;1.65;;;11.80;99.90;;;10.56;85.31;100846.69;5002779;28;20041;-74
2023/05/15 01:29:31;;;;;;;0.77;0.63;;;11.70;99.90;;;10.44;86.61;100846.31;5017632;28;20032;-74
2023/05/15 01:32:05;;;;;;;0.98;0.82;;;11.70;99.90;;;10.40;87.37;100838.63;5012657;28;20636;-73
2023/05/15 01:34:44;;;;;;;2.05;1.02;;;11.60;99.90;;;10.37;87.62;100849.31;5012164;28;20097;-73
2023/05/15 01:37:13;;;;;;;3.60;1.70;;;11.60;99.90;;;10.36;88.58;100837.91;5012163;28;20053;-74
2023/05/15 01:39:43;;;;;;;1.30;0.75;;;11.60;99.90;;;10.38;87.48;100836.06;4995606;28;20040;-73
2023/05/15 01:42:12;;;;;;;2.13;1.35;;;11.60;99.90;;;10.38;86.96;100840.47;5014622;28;20090;-73
2023/05/15 01:44:48;;;;;;;3.63;1.55;;;11.60;99.90;;;10.37;86.79;100836.16;5015888;28;20040;-73
2023/05/15 01:47:36;;;;;;;2.58;1.42;;;11.50;99.90;;;10.36;86.87;100835.25;5002943;28;20038;-73
2023/05/15 01:50:04;;;;;;;1.77;1.15;;;11.50;99.90;;;10.34;86.84;100837.09;4988305;28;20454;-74
2023/05/15 01:52:35;;;;;;;5.93;1.02;;;11.50;99.90;;;10.34;85.89;100826.59;5024973;28;20107;-74
2023/05/15 01:55:03;;;;;;;2.53;1.10;;;11.50;99.90;;;10.34;87.53;100817.84;5011738;28;20033;-73
2023/05/15 01:57:30;;;;;;;11.48;1.50;;;11.50;99.90;;;10.36;89.69;100830.00;5009746;28;20095;-73
2023/05/15 01:59:57;;;;;;;3.63;1.20;;;11.50;99.90;;;10.35;88.47;100820.41;5008100;28;20088;-73
2023/05/15 02:02:25;;;;;;;2.28;1.58;;;11.50;99.90;;;10.33;88.39;100814.34;5008555;28;20035;-74
2023/05/15 02:04:52;;;;;;;2.15;1.10;;;11.50;99.90;;;10.32;90.75;100807.38;4995044;28;20534;-73
2023/05/15 02:07:18;;;;;;;1.55;1.00;;;11.50;99.90;;;10.29;92.04;100811.91;5010034;28;20037;-74
2023/05/15 02:09:49;;;;;;;1.77;0.85;;;11.50;99.90;;;10.27;92.19;100806.69;4992307;28;20398;-73
2023/05/15 02:12:15;;;;;;;0.60;0.55;;;11.50;99.90;;;10.25;90.45;100813.81;5000573;28;20033;-74
2023/05/15 02:14:42;;;;;;;3.08;2.00;;;11.40;99.90;;;10.21;89.44;100806.97;5004753;28;20099;-74
2023/05/15 02:17:08;;;;;;;3.10;1.25;;;11.30;99.90;;;10.14;88.75;100810.78;5019763;28;20490;-73
2023/05/15 02:19:34;;;;;;;3.45;1.25;;;11.30;99.90;;;10.08;88.76;100811.91;5001955;28;20048;-74
2023/05/15 02:22:00;;;;;;;2.38;1.23;;;11.30;99.90;;;10.03;88.69;100813.88;5013528;28;20032;-73
2023/05/15 02:24:26;;;;;;;1.23;0.80;;;11.20;99.90;;;9.98;88.33;100808.81;5009259;28;20034;-73
2023/05/15 02:27:14;;;;;;;2.35;1.23;;;11.10;99.90;;;9.91;88.53;100802.09;4994856;28;20033;-73
2023/05/15 02:30:13;;;;;;;1.55;1.00;;;11.10;99.90;;;9.82;89.84;100813.00;5010199;28;20537;-73
2023/05/15 02:33:13;;;;;;;1.10;0.80;;;11.00;99.90;;;9.78;90.26;100806.16;5010521;28;20041;-73
2023/05/15 02:36:04;;;;;;;2.28;1.17;;;11.00;99.90;;;9.74;89.65;100800.19;5031947;28;20041;-74
2023/05/15 02:38:52;;;;;;;2.53;1.48;;;11.00;99.90;;;9.72;88.99;100803.78;5012372;28;20048;-73
2023/05/15 02:41:20;;;;;;;2.85;1.30;;;10.90;99.90;;;9.68;89.99;100802.22;5014021;28;20037;-73
2023/05/15 02:43:49;;;;;;;2.53;1.50;;;10.90;99.90;;;9.67;89.38;100800.50;5011036;28;20033;-73
2023/05/15 02:46:16;;;;;;;2.10;1.45;;;10.90;99.90;;;9.63;89.20;100795.38;5010178;28;20045;-73
2023/05/15 02:48:42;;;;;;;2.45;1.30;;;10.80;99.90;;;9.60;89.17;100781.50;5008992;28;20084;-73
2023/05/15 02:51:09;;;;;;;1.30;1.05;;;10.80;99.90;;;9.60;89.68;100782.34;4998366;28;20049;-73
2023/05/15 02:53:42;;;;;;;1.58;1.10;;;10.80;99.90;;;9.58;89.90;100781.56;5008959;28;20109;-73
2023/05/15 02:56:08;;;;;;;5.78;1.13;;;10.80;99.90;;;9.56;90.53;100774.66;5010356;28;20030;-74
2023/05/15 02:58:35;;;;;;;2.72;1.42;;;10.80;99.90;;;9.56;90.18;100777.28;5000163;28;20038;-73
2023/05/15 03:01:00;;;;;;;3.20;1.38;;;10.80;99.90;;;9.56;90.32;100766.78;5012276;28;20486;-73
2023/05/15 03:03:26;;;;;;;2.40;1.40;;;10.80;99.90;;;9.54;90.17;100766.84;5010916;28;20198;-73
2023/05/15 03:05:52;;;;;;;0.98;0.80;;;10.80;99.90;;;9.55;90.07;100765.94;5016941;28;20037;-74
2023/05/15 03:08:18;;;;;;;2.33;1.20;;;10.70;99.90;;;9.52;89.62;100760.78;5010220;28;20121;-73
2023/05/15 03:10:44;;;;;;;1.48;1.08;;;10.70;99.90;;;9.52;89.23;100768.66;5010610;28;20045;-73
2023/05/15 03:13:10;;;;;;;1.55;1.02;;;10.70;99.90;;;9.49;88.65;100766.19;4998622;28;20135;-73
2023/05/15 03:15:36;;;;;;;2.42;1.17;;;10.70;99.90;;;9.49;89.27;100755.66;5008442;28;20449;-73
2023/05/15 03:18:04;;;;;;;1.95;1.20;;;10.70;99.90;;;9.49;88.89;100755.66;4989249;28;20556;-74
2023/05/15 03:20:30;;;;;;;2.70;1.30;;;10.60;99.90;;;9.49;88.22;100763.56;4999839;28;20038;-73
2023/05/15 03:22:56;;;;;;;2.28;1.40;;;10.70;99.90;;;9.50;88.35;100752.09;4991046;28;20075;-74
2023/05/15 03:25:22;;;;;;;;;;;10.70;99.90;;;9.53;88.58;100757.25;5006623;28;20036;-73
2023/05/15 03:27:47;;;;;;;1.58;1.30;;;10.70;99.90;;;9.50;88.81;100757.34;4988161;28;20447;-73
2023/05/15 03:30:13;;;;;;;1.67;1.15;;;10.60;99.90;;;9.52;88.50;100759.94;5003137;28;20046;-73
2023/05/15 03:32:39;;;;;;;1.45;0.80;;;10.60;99.90;;;9.53;89.53;100745.88;4982994;28;20509;-74
2023/05/15 03:35:08;;;;;;;1.15;1.02;;;10.70;99.90;;;9.55;90.13;100747.53;4977743;28;20490;-73
2023/05/15 03:37:34;;;;;;;1.42;1.25;;;10.70;99.90;;;9.56;91.25;100751.84;4998397;28;20616;-73
2023/05/15 03:40:00;;;;;;;4.32;1.13;;;10.70;99.90;;;9.60;90.78;100750.81;5007561;28;20033;-73
2023/05/15 03:42:26;;;;;;;;;;;10.70;99.90;;;9.62;90.13;100746.34;5009876;28;20052;-73
2023/05/15 03:44:52;;;;;;;1.60;0.90;;;10.70;99.90;;;9.58;90.85;100755.28;5010679;28;19924;-74
2023/05/15 03:47:18;;;;;;;2.45;1.50;;;10.70;99.90;;;9.58;92.26;100747.38;5011183;28;20034;-74
2023/05/15 03:49:45;;;;;;;5.28;1.67;;;10.70;99.90;;;9.67;91.50;100742.66;4999366;28;20037;-73
2023/05/15 03:52:11;;;;;;;2.85;1.35;;;10.80;99.90;;;9.71;89.89;100744.25;5005145;28;20049;-74
2023/05/15 03:54:37;;;;;;;2.78;1.67;;;10.80;99.90;;;9.74;88.93;100734.47;5011472;28;20116;-74
2023/05/15 03:57:03;;;;;;;3.47;1.30;;;10.80;99.90;;;9.80;88.39;100736.81;5010592;28;20034;-73
2023/05/15 03:59:30;;;;;;;2.25;1.05;;;10.90;99.90;;;9.82;87.98;100734.97;5016187;28;20121;-74
2023/05/15 04:01:56;;;;;;;3.50;1.20;;;10.90;99.90;;;9.86;87.13;100738.31;4991323;28;20050;-74
2023/05/15 04:04:21;;;;;;;1.50;1.02;;;10.90;99.90;;;9.88;87.53;100731.22;5008498;28;20029;-73
2023/05/15 04:06:48;;;;;;;2.92;1.13;;;10.90;99.90;;;9.90;88.38;100732.00;5010015;28;20034;-73
2023/05/15 04:09:16;;;;;;;2.38;1.48;;;11.00;99.90;;;9.95;87.84;100735.28;4992549;28;20521;-73
2023/05/15 04:11:42;;;;;;;4.78;1.95;;;11.00;99.90;;;10.00;87.50;100735.06;5009125;28;20397;-73
2023/05/15 04:14:08;;;;;;;3.28;1.52;;;11.00;99.90;;;10.02;86.62;100731.50;5006697;28;20030;-74
2023/05/15 04:16:34;;;;;;;4.30;2.30;;;11.00;99.90;;;10.07;85.82;100736.53;5011228;28;20052;-74
2023/05/15 04:19:00;;;;;;;5.20;1.23;;;11.00;99.90;;;10.11;85.13;100739.88;5007996;28;20371;-73
2023/05/15 04:21:26;;;;;;;2.28;1.67;;;11.10;99.90;;;10.19;84.63;100730.72;4982754;28;20116;-73
2023/05/15 04:23:52;;;;;;;4.65;2.20;;;11.20;99.90;;;10.28;84.74;100729.47;5007517;28;20030;-74
2023/05/15 04:26:20;;;;;;;3.33;1.85;;;11.30;99.90;;;10.41;84.58;100725.38;5006021;28;20108;-74
2023/05/15 04:28:46;;;;;;;3.38;1.60;;;11.40;99.90;;;10.55;85.35;100723.88;5012599;28;20775;-73
2023/05/15 04:31:11;;;;;;;2.40;1.50;;;11.50;99.90;;;10.77;84.44;100729.84;4993442;28;20113;-73
2023/05/15 04:33:40;;;;;;;4.60;2.05;;;11.70;99.90;;;11.06;83.31;100746.06;5007250;28;20121;-73
2023/05/15 04:36:10;;;;;;;3.22;1.85;;;11.90;99.90;;;11.39;81.92;100735.63;5008314;28;20041;-73
2023/05/15 04:38:36;;;;;;;3.58;1.90;;;12.10;99.90;;;11.83;81.17;100734.28;4991976;28;20029;-73
2023/05/15 04:41:02;;;;;;;3.80;2.00;;;12.40;99.90;;;12.11;79.95;100734.59;5012439;28;20113;-73
2023/05/15 04:43:27;;;;;;;3.35;1.83;;;12.70;99.90;;;12.35;78.64;100736.84;5008978;28;20041;-74
2023/05/15 04:45:53;;;;;;;;;;;12.60;99.90;;;12.84;77.07;100736.81;5007621;28;20038;-73
2023/05/15 04:48:19;;;;;;;4.25;2.00;;;13.30;99.90;;;13.49;76.18;100746.38;5001262;28;19921;-73
2023/05/15 04:50:45;;;;;;;3.90;2.35;;;13.60;99.90;;;13.62;74.62;100747.38;5000781;28;20596;-73
2023/05/15 04:53:10;;;;;;;;;;;13.60;99.90;;;14.15;72.88;100738.00;4998857;28;20110;-73
2023/05/15 04:55:36;;;;;;;2.60;1.55;;;14.20;99.90;;;14.15;72.23;100738.00;5016129;28;19921;-73
2023/05/15 04:58:02;;;;;;;;;;;14.20;99.90;;;14.06;72.13;100740.34;5010630;28;20190;-73
2023/05/15 05:00:28;;;;;;;2.83;1.70;;;14.30;99.90;;;13.82;72.69;100721.50;5015080;28;19967;-74
2023/05/15 05:02:54;;;;;;;5.35;2.03;;;14.20;99.90;;;13.53;73.31;100721.47;5009563;28;20033;-73
2023/05/15 05:05:20;;;;;;;5.72;1.70;;;14.00;99.90;;;13.30;73.54;100715.75;5029590;28;20053;-73
2023/05/15 05:07:46;;;;;;;4.25;2.13;;;13.90;99.90;;;13.20;73.76;100719.81;5009807;28;20041;-73
2023/05/15 05:10:12;;;;;;;4.72;2.60;;;13.90;99.90;;;13.20;73.74;100719.81;4986761;28;20470;-73
2023/05/15 05:12:38;;;;;;;2.78;1.98;;;13.80;99.90;;;13.28;73.74;100720.25;5010995;28;20500;-73
2023/05/15 05:15:05;;;;;;;3.22;1.58;;;13.90;99.90;;;13.41;73.85;100719.53;4996121;28;20050;-73
2023/05/15 05:17:33;;;;;;;5.35;2.55;;;14.00;99.90;;;13.54;73.35;100717.84;5014659;28;20037;-73
2023/05/15 05:19:58;;;;;;;5.68;2.10;;;14.10;99.90;;;13.71;73.50;100716.84;5010515;28;20030;-73
2023/05/15 05:22:25;;;;;;;3.20;2.00;;;14.30;99.90;;;14.01;72.47;100721.25;5004849;28;20036;-74
2023/05/15 05:24:50;;;;;;;2.80;1.92;;;14.50;99.90;;;14.34;72.74;100719.19;5005110;28;20090;-74
2023/05/15 05:27:16;;;;;;;6.03;2.55;;;14.80;99.90;;;14.93;71.32;100731.41;4986516;28;20030;-73
2023/05/15 05:29:45;;;;;;;;;;;14.80;99.90;;;15.56;70.54;100741.34;5013815;28;20033;-73
2023/05/15 05:32:11;;;;;;;5.15;2.80;;;15.60;99.90;;;15.86;69.09;100742.09;4974946;28;19921;-74
2023/05/15 05:34:37;;;;;;;4.65;2.70;;;16.00;99.90;;;16.07;68.11;100742.38;5015427;28;20059;-74
2023/05/15 05:37:03;;;;;;;8.40;2.00;;;16.20;99.90;;;16.17;68.21;100731.00;4992785;28;20491;-73
2023/05/15 05:39:29;;;;;;;;;;;16.30;99.90;;;16.29;68.00;100739.09;5011605;28;20040;-73
2023/05/15 05:41:55;;;;;;;4.68;2.35;;;16.50;99.90;;;16.27;68.13;100730.38;5013892;28;19923;-73
2023/05/15 05:44:20;;;;;;;4.70;1.90;;;16.60;99.90;;;16.07;68.95;100723.78;5003630;28;20034;-73
2023/05/15 05:46:46;;;;;;;;;;;16.60;99.90;;;15.89;70.28;100725.94;5013243;28;20034;-74
2023/05/15 05:49:12;;;;;;;4.55;2.28;;;16.40;99.90;;;15.70;71.10;100716.56;5002647;28;19913;-74
2023/05/15 05:51:38;;;;;;;;;;;16.40;99.90;;;15.67;71.72;100716.75;5006463;28;20045;-73
2023/05/15 05:54:04;;;;;;;2.42;1.50;;;16.30;99.90;;;15.75;71.61;100713.63;5002992;28;19921;-74
2023/05/15 05:56:30;;;;;;;5.28;1.65;;;16.40;99.90;;;16.07;70.59;100715.81;5009678;28;20025;-74
2023/05/15 05:58:56;;;;;;;2.30;1.80;;;16.50;99.90;;;16.35;70.25;100712.09;5003474;28;20172;-74
2023/05/15 06:01:22;;;;;;;3.42;2.10;;;16.70;99.90;;;16.72;69.56;100722.75;5013365;28;20037;-73
2023/05/15 06:03:48;;;;;;;2.83;1.63;;;17.00;99.90;;;17.10;68.69;100722.59;5003549;28;20041;-74
2023/05/15 06:06:13;;;;;;;14.05;2.05;;;17.40;99.90;;;17.62;67.30;100724.03;5011535;28;20033;-74
2023/05/15 06:08:39;;;;;;;;;;;17.40;99.90;;;18.26;66.39;100716.53;4992320;28;20038;-73
2023/05/15 06:11:05;;;;;;;2.55;1.70;;;18.30;99.90;;;19.47;63.65;100726.16;5010139;28;20308;-74
2023/05/15 06:13:33;;;;;;;;;;;18.50;99.90;;;20.89;60.49;100735.34;5013821;28;20036;-74
2023/05/15 06:16:00;;;;;;;5.53;2.55;;;20.20;99.90;;;21.94;57.46;100736.47;5012773;28;20432;-74
2023/05/15 06:18:26;;;;;;;4.65;2.08;;;21.10;99.90;;;22.83;54.61;100734.13;5015913;28;20042;-74
2023/05/15 06:20:52;;;;;;;3.75;2.00;;;22.00;99.90;;;24.25;52.52;100747.59;5009215;28;20033;-74
2023/05/15 06:23:18;;;;;;;2.13;1.35;;;23.10;99.90;;;26.10;49.15;100763.63;4999749;28;20041;-73
2023/05/15 06:25:44;;;;;;;3.85;1.70;;;24.30;99.90;;;26.79;47.08;100753.13;5009434;28;20525;-73
2023/05/15 06:28:10;;;;;;;2.60;1.65;;;25.10;99.90;;;26.58;46.75;100751.03;4994516;28;20458;-74
2023/05/15 06:30:35;;;;;;;2.05;1.50;;;25.70;97.90;;;27.07;45.42;100757.19;4970007;28;20115;-74
2023/05/15 06:33:01;;;;;;;;;;;25.80;98.50;;;28.08;43.69;100768.72;5017671;28;20125;-75
2023/05/15 06:35:27;;;;;;;1.98;1.65;;;27.20;97.20;;;29.82;42.66;100788.75;4989404;28;19929;-74
2023/05/15 06:37:53;;;;;;;;;;;27.30;97.90;;;30.92;40.36;100795.31;5013979;28;20037;-74
2023/05/15 06:40:20;;;;;;;3.15;1.55;;;29.40;93.90;;;31.85;38.53;100806.38;5007066;28;19920;-74
2023/05/15 06:42:46;;;;;;;4.05;1.40;;;30.30;91.10;;;32.13;37.82;100812.66;5000979;28;20037;-74
2023/05/15 06:45:12;;;;;;;4.50;1.83;;;31.00;89.30;;;32.58;36.43;100816.38;5013667;28;20049;-74
2023/05/15 06:47:37;;;;;;;1.70;1.55;;;31.70;89.30;;;33.38;36.83;100821.47;4999488;28;20036;-73
2023/05/15 06:50:04;;;;;;;;;;;31.70;92.00;;;33.33;33.58;100824.03;5008619;28;20426;-74
2023/05/15 06:52:30;;;;;;;1.88;1.40;;;32.50;82.00;;;33.07;35.82;100827.75;5010452;28;19928;-74
2023/05/15 06:54:56;;;;;;;2.25;1.40;;;32.60;80.30;;;33.14;34.34;100833.16;5029148;28;20037;-74
2023/05/15 06:57:21;;;;;;;2.38;1.52;;;32.60;78.10;;;31.72;36.35;100819.97;4999623;28;20033;-74
2023/05/15 06:59:47;;;;;;;1.85;1.60;;;32.30;80.50;;;32.16;36.34;100820.41;5040832;28;20602;-74
2023/05/15 07:02:13;;;;;;;3.63;1.45;;;32.40;80.90;;;33.20;35.62;100840.47;5002650;28;20171;-74
2023/05/15 07:04:39;;;;;;;2.55;1.73;;;32.70;83.10;;;33.52;35.26;100852.22;5014163;28;20474;-74
2023/05/15 07:07:05;;;;;;;2.17;1.67;;;33.10;76.40;;;33.03;33.78;100846.41;5004377;28;20184;-74
2023/05/15 07:09:31;;;;;;;2.38;1.60;;;33.10;78.80;;;33.44;34.54;100853.34;5000746;28;20037;-74
2023/05/15 07:11:57;;;;;;;1.83;1.63;;;33.40;80.00;;;33.81;32.33;100861.72;4992056;28;20053;-73
2023/05/15 07:14:23;;;;;;;2.13;1.60;;;33.50;80.10;;;34.08;33.94;100867.81;5014023;28;20116;-74
2023/05/15 07:16:49;;;;;;;3.13;1.65;;;33.80;79.20;;;34.38;34.39;100869.03;5008725;28;20033;-74
2023/05/15 07:19:19;;;;;;;2.42;1.95;;;34.30;80.50;;;35.12;34.05;100878.09;4999856;28;20041;-74
2023/05/15 07:21:46;;;;;;;1.73;1.40;;;35.00;77.90;;;35.71;32.80;100870.97;5007634;28;20033;-73
2023/05/15 07:24:12;;;;;;;1.98;1.58;;;35.50;79.60;;;36.43;32.48;100875.47;5004980;28;20101;-74
2023/05/15 07:26:37;;;;;;;1.80;1.30;;;35.90;77.70;;;36.73;32.23;100879.97;5003124;28;20037;-74
2023/05/15 07:29:03;;;;;;;1.65;1.50;;;36.10;73.30;;;36.41;32.12;100885.81;4998773;28;20033;-74
2023/05/15 07:31:32;;;;;;;2.53;1.48;;;35.80;70.30;;;35.00;33.30;100878.03;5007321;28;20038;-74
2023/05/15 07:33:58;;;;;;;1.60;1.02;;;35.60;73.50;;;35.10;32.21;100869.28;5012735;28;20521;-74
2023/05/15 07:36:24;;;;;;;1.92;1.10;;;35.40;73.80;;;35.01;32.33;100867.91;5010397;28;20099;-74
2023/05/15 07:38:49;;;;;;;1.23;1.10;;;34.70;71.60;;;32.66;34.26;100840.66;5010872;28;20120;-74
2023/05/15 07:41:15;;;;;;;2.35;1.25;;;34.10;76.40;;;33.49;33.86;100853.50;5009410;28;20529;-74
2023/05/15 07:43:41;;;;;;;2.20;2.00;;;33.80;76.90;;;33.05;34.40;100841.56;4998637;28;20025;-74
2023/05/15 07:46:07;;;;;;;1.80;1.50;;;33.70;79.00;;;33.95;34.82;100842.50;5011562;28;20160;-73
2023/05/15 07:48:32;;;;;;;2.38;1.35;;;33.90;79.20;;;34.17;34.25;100849.25;5022889;28;20068;-74
2023/05/15 07:50:58;;;;;;;2.70;1.80;;;34.10;77.60;;;34.28;33.67;100845.78;5010680;28;20051;-74
2023/05/15 07:53:25;;;;;;;3.45;2.22;;;34.20;78.40;;;33.79;33.97;100841.16;5007849;28;20129;-74
2023/05/15 07:55:51;;;;;;;1.92;1.17;;;33.90;76.70;;;33.10;35.17;100822.66;5009410;28;20061;-74
2023/05/15 07:58:16;;;;;;;1.95;1.40;;;33.60;78.20;;;33.51;34.90;100826.81;4999852;28;20441;-74
2023/05/15 08:00:42;;;;;;;3.10;1.73;;;33.50;77.30;;;33.25;34.39;100808.75;4998860;28;20494;-74
2023/05/15 08:03:09;;;;;;;1.90;1.42;;;33.20;76.00;;;32.19;34.86;100796.31;5007802;28;20049;-74
2023/05/15 08:05:35;;;;;;;2.50;1.27;;;32.60;76.70;;;31.37;36.04;100783.94;5006957;28;20706;-74
2023/05/15 08:08:01;;;;;;;1.63;1.40;;;31.50;77.10;;;29.04;38.31;100750.63;5008692;28;20042;-74
2023/05/15 08:10:27;;;;;;;1.75;1.40;;;30.20;80.70;;;28.29;40.57;100743.63;5002971;28;20041;-74
2023/05/15 08:12:53;;;;;;;3.10;1.58;;;29.30;82.10;;;27.56;40.80;100722.53;4994760;28;20026;-74
2023/05/15 08:15:19;;;;;;;3.90;1.83;;;28.70;82.90;;;28.04;40.53;100729.56;5010893;28;20049;-74
2023/05/15 08:17:44;;;;;;;1.55;1.27;;;28.80;86.10;;;29.25;39.71;100744.41;5000988;28;20034;-74
2023/05/15 08:20:11;;;;;;;2.53;1.58;;;29.40;85.80;;;30.36;38.61;100743.84;5025464;28;20041;-74
2023/05/15 08:22:37;;;;;;;3.08;1.48;;;30.10;84.70;;;31.30;37.60;100748.56;5022535;28;20045;-74
2023/05/15 08:25:05;;;;;;;1.63;1.13;;;30.90;83.60;;;32.02;36.64;100746.06;5000117;28;20049;-74
2023/05/15 08:27:31;;;;;;;2.42;1.55;;;31.30;81.00;;;31.64;36.21;100742.13;5012061;28;20112;-74
2023/05/15 08:29:57;;;;;;;1.65;1.20;;;31.20;76.90;;;30.78;36.14;100734.59;5012548;28;20042;-74
2023/05/15 08:32:26;;;;;;;1.35;1.10;;;30.70;76.20;;;29.67;36.91;100720.97;5011761;28;20053;-73
2023/05/15 08:34:51;;;;;;;1.60;1.20;;;30.10;78.10;;;29.10;38.06;100701.09;5013050;28;20041;-74
2023/05/15 08:37:17;;;;;;;1.40;1.13;;;29.50;78.80;;;28.22;38.02;100689.41;5012869;28;20060;-74
2023/05/15 08:39:43;;;;;;;1.63;1.20;;;28.90;79.70;;;27.66;39.99;100678.16;5016561;28;20036;-74
2023/05/15 08:42:21;;;;;;;1.25;1.08;;;28.30;81.50;;;27.07;40.25;100660.75;5010754;28;20108;-74
2023/05/15 08:44:47;;;;;;;1.55;1.00;;;27.70;82.10;;;26.49;41.46;100637.81;5002395;28;20037;-74
2023/05/15 08:47:19;;;;;;;1.52;0.75;;;27.20;84.30;;;26.07;42.73;100630.94;5010280;28;20094;-74
2023/05/15 08:50:05;;;;;;;1.95;1.20;;;26.70;85.30;;;25.69;43.27;100628.84;5008479;28;20606;-74
2023/05/15 08:52:34;;;;;;;2.80;1.27;;;26.30;88.00;;;25.33;44.55;100625.69;5011982;28;20682;-73
2023/05/15 08:55:02;;;;;;;2.70;1.20;;;25.90;88.10;;;25.04;44.69;100631.59;5001774;28;20069;-73
2023/05/15 08:57:28;;;;;;;2.53;1.10;;;25.70;90.20;;;24.69;45.98;100622.81;5032808;28;20057;-74
2023/05/15 08:59:55;;;;;;;1.15;0.90;;;25.30;88.40;;;23.86;46.16;100604.69;4992569;28;20105;-74
2023/05/15 09:02:24;;;;;;;1.88;1.25;;;24.70;87.60;;;22.89;46.40;100598.44;5015219;28;20050;-74
2023/05/15 09:04:50;;;;;;;5.03;1.45;;;24.20;90.10;;;22.78;47.78;100596.00;5012078;28;20088;-74
2023/05/15 09:07:16;;;;;;;2.60;1.38;;;23.80;91.40;;;22.64;48.63;100598.22;4992190;28;20087;-74
2023/05/15 09:09:44;;;;;;;2.03;1.35;;;23.60;92.00;;;22.58;49.25;100598.84;5003363;28;20044;-74
2023/05/15 09:12:14;;;;;;;1.95;1.20;;;23.40;92.20;;;22.35;49.43;100597.59;5012602;28;20075;-73
2023/05/15 09:14:46;;;;;;;2.78;1.67;;;23.20;91.60;;;22.24;49.03;100599.47;5016107;28;20049;-74
2023/05/15 09:17:12;;;;;;;2.75;1.48;;;23.00;92.40;;;21.97;49.74;100589.59;4997544;28;20732;-74
2023/05/15 09:19:39;;;;;;;5.40;1.67;;;22.80;92.10;;;21.91;49.66;100591.00;5012022;28;20052;-73
2023/05/15 09:22:21;;;;;;;2.42;1.67;;;22.70;93.20;;;21.84;50.49;100584.56;5012882;28;20045;-74
2023/05/15 09:24:51;;;;;;;1.98;1.35;;;22.60;93.60;;;21.69;51.13;100580.69;5013505;28;20038;-74
2023/05/15 09:27:19;;;;;;;1.77;1.05;;;22.40;94.70;;;21.54;52.50;100577.63;5013144;28;20192;-74
2023/05/15 09:29:46;;;;;;;2.80;1.75;;;22.20;95.00;;;21.29;52.96;100569.22;5013493;28;20026;-74
2023/05/15 09:32:19;;;;;;;2.22;1.15;;;22.10;95.40;;;21.03;53.53;100552.91;5010652;28;20041;-73
2023/05/15 09:34:48;;;;;;;1.58;1.42;;;21.90;95.50;;;20.93;54.10;100551.25;5004284;28;20038;-74
2023/05/15 09:37:34;;;;;;;2.67;1.30;;;21.80;96.90;;;20.94;55.78;100543.06;5006981;28;20038;-74
2023/05/15 09:40:12;;;;;;;2.47;1.20;;;21.80;97.40;;;21.07;55.35;100543.59;5012745;28;20486;-74
2023/05/15 09:42:44;;;;;;;1.83;1.42;;;21.80;97.90;;;21.36;55.90;100544.53;5012092;28;20049;-74
2023/05/15 09:45:19;;;;;;;2.50;1.23;;;21.90;98.00;;;21.76;54.62;100546.09;4998641;28;20037;-74
2023/05/15 09:47:46;;;;;;;2.60;1.48;;;22.00;97.60;;;22.10;54.04;100546.34;5008262;28;20033;-74
2023/05/15 09:50:19;;;;;;;3.03;1.23;;;22.20;96.40;;;22.40;52.10;100555.06;5013942;28;20025;-74
2023/05/15 09:52:48;;;;;;;2.20;1.20;;;22.40;96.10;;;22.50;51.69;100563.88;5004366;28;20026;-73
2023/05/15 09:55:16;;;;;;;3.60;1.63;;;22.50;97.30;;;22.41;54.11;100564.78;5011442;28;20044;-74
2023/05/15 09:58:05;;;;;;;2.50;1.30;;;22.50;98.00;;;21.91;56.48;100556.16;5011907;28;20209;-74
2023/05/15 10:00:33;;;;;;;3.05;1.40;;;22.40;99.00;;;21.91;56.44;100553.50;5020839;28;20045;-74
2023/05/15 10:03:05;;;;;;;5.20;1.52;;;22.40;98.60;;;22.24;55.29;100553.88;5012695;28;20663;-74
2023/05/15 10:05:32;;;;;;;2.50;1.52;;;22.50;99.30;;;22.46;55.19;100551.75;5012073;28;20670;-74
2023/05/15 10:08:02;;;;;;;2.45;1.25;;;22.60;98.60;;;22.52;54.97;100548.47;5028123;28;21116;-73
2023/05/15 10:10:31;;;;;;;1.80;1.50;;;22.70;98.90;;;22.64;54.82;100554.47;5020545;28;20034;-74
2023/05/15 10:13:04;;;;;;;3.78;1.52;;;22.80;99.80;;;22.99;54.76;100553.56;5011349;28;20658;-74
2023/05/15 10:15:31;;;;;;;1.90;1.30;;;23.10;99.20;;;23.46;53.85;100549.72;5014005;28;20057;-74
2023/05/15 10:17:59;;;;;;;1.77;1.25;;;23.20;98.00;;;23.71;52.15;100553.34;5005002;28;20045;-73
2023/05/15 10:20:35;;;;;;;2.28;1.30;;;23.40;98.60;;;23.77;52.74;100547.34;5012390;28;20417;-73